Time;durP1;ratioP1;P1;durP2;ratioP2;P2;SDS_P1;SDS_P2;PMS_P1;PMS_P2;Temp;Humidity;BMP_temperature;BMP_pressure;BME280_temperature;BME280_humidity;BME280_pressure;Samples;Min_cycle;Max_cycle;Signal;HPM_P1;HPM_P2
2021/09/13 00:01:42;;;;;;;8.27;7.07;;;;;;;;;;5035794;28;20425;-77
2021/09/13 00:04:08;;;;;;;7.73;6.40;;;;;;;;;;5034867;28;20464;-77
2021/09/13 00:06:34;;;;;;;7.60;6.80;;;;;;;;;;5035880;28;20605;-77
2021/09/13 00:09:00;;;;;;;11.10;6.43;;;;;;;;;;5035770;28;20782;-77
2021/09/13 00:11:26;;;;;;;8.07;6.30;;;;;;;;;;5035783;28;20436;-78
2021/09/13 00:13:52;;;;;;;11.90;7.63;;;;;;;;;;5036008;28;20401;-78
2021/09/13 00:16:18;;;;;;;10.10;8.10;;;;;;;;;;5036089;28;20421;-77
2021/09/13 00:18:44;;;;;;;8.40;7.47;;;;;;;;;;5035986;28;20405;-78
2021/09/13 00:21:10;;;;;;;11.57;7.57;;;;;;;;;;5035399;28;20437;-78
2021/09/13 00:23:36;;;;;;;13.03;7.00;;;;;;;;;;5035687;28;20904;-78
2021/09/13 00:26:02;;;;;;;10.17;6.60;;;;;;;;;;5017951;28;21056;-76
2021/09/13 00:28:28;;;;;;;7.10;6.27;;;;;;;;;;5017899;28;20803;-78
2021/09/13 00:30:54;;;;;;;8.97;6.90;;;;;;;;;;5035206;28;20412;-77
2021/09/13 00:33:20;;;;;;;11.43;7.20;;;;;;;;;;5017514;28;20428;-77
2021/09/13 00:35:46;;;;;;;7.80;7.10;;;;;;;;;;5035800;28;20409;-76
2021/09/13 00:38:12;;;;;;;7.70;6.50;;;;;;;;;;5035624;28;20412;-78
2021/09/13 00:40:38;;;;;;;6.63;6.03;;;;;;;;;;5017464;28;20420;-81
2021/09/13 00:43:04;;;;;;;6.70;6.00;;;;;;;;;;5035125;28;20448;-76
2021/09/13 00:45:30;;;;;;;9.07;5.50;;;;;;;;;;5017532;28;20459;-77
2021/09/13 00:47:56;;;;;;;7.27;6.13;;;;;;;;;;5017460;28;20781;-77
2021/09/13 00:50:22;;;;;;;7.53;5.73;;;;;;;;;;5017343;28;20440;-77
2021/09/13 00:52:52;;;;;;;9.00;6.27;;;;;;;;;;5017092;28;20444;-76
2021/09/13 00:55:18;;;;;;;6.60;5.93;;;;;;;;;;5017352;28;20425;-77
2021/09/13 00:57:45;;;;;;;7.23;6.40;;;;;;;;;;5034955;28;20520;-77
2021/09/13 01:00:11;;;;;;;12.93;6.40;;;;;;;;;;5034904;28;20412;-77
2021/09/13 01:02:38;;;;;;;7.37;6.40;;;;;;;;;;5034449;28;20973;-76
2021/09/13 01:05:04;;;;;;;7.90;6.10;;;;;;;;;;5034697;28;20894;-77
2021/09/13 01:07:31;;;;;;;8.13;6.40;;;;;;;;;;5034745;28;20513;-77
2021/09/13 01:09:58;;;;;;;12.10;6.53;;;;;;;;;;5034775;28;20409;-77
2021/09/13 01:12:24;;;;;;;11.60;6.40;;;;;;;;;;5034414;28;20436;-77
2021/09/13 01:14:50;;;;;;;9.93;7.40;;;;;;;;;;5034629;28;20437;-78
2021/09/13 01:17:16;;;;;;;6.87;6.27;;;;;;;;;;5034840;28;20491;-78
2021/09/13 01:19:42;;;;;;;10.67;7.10;;;;;;;;;;5034365;28;20892;-79
2021/09/13 01:22:10;;;;;;;8.20;6.50;;;;;;;;;;5016212;28;20964;-77
2021/09/13 01:24:36;;;;;;;9.70;7.00;;;;;;;;;;5034477;28;20456;-79
2021/09/13 01:27:04;;;;;;;7.87;7.07;;;;;;;;;;5034454;28;20430;-79
2021/09/13 01:29:30;;;;;;;8.07;7.37;;;;;;;;;;5034616;28;20408;-78
2021/09/13 01:31:56;;;;;;;7.50;6.60;;;;;;;;;;5016408;28;20802;-78
2021/09/13 01:34:22;;;;;;;11.53;7.70;;;;;;;;;;5034458;28;20412;-77
2021/09/13 01:36:48;;;;;;;9.03;7.13;;;;;;;;;;5016903;28;20823;-78
2021/09/13 01:39:14;;;;;;;8.20;6.30;;;;;;;;;;5016899;28;20413;-77
2021/09/13 01:41:40;;;;;;;8.87;8.03;;;;;;;;;;5033776;28;20937;-78
2021/09/13 01:44:06;;;;;;;8.23;7.20;;;;;;;;;;5034063;28;20944;-76
2021/09/13 01:46:32;;;;;;;9.10;7.40;;;;;;;;;;5033962;28;20464;-78
2021/09/13 01:48:58;;;;;;;9.07;6.73;;;;;;;;;;5034029;28;20773;-77
2021/09/13 01:51:24;;;;;;;9.30;7.27;;;;;;;;;;5033611;28;20475;-77
2021/09/13 01:53:50;;;;;;;6.60;6.00;;;;;;;;;;5033966;28;20437;-79
2021/09/13 01:56:16;;;;;;;8.37;6.43;;;;;;;;;;5033834;28;20448;-77
2021/09/13 01:58:42;;;;;;;12.23;6.83;;;;;;;;;;5034038;28;20413;-77
2021/09/13 02:01:08;;;;;;;7.73;6.83;;;;;;;;;;5016003;28;20432;-76
2021/09/13 02:03:34;;;;;;;8.10;6.80;;;;;;;;;;5033734;28;20412;-76
2021/09/13 02:06:00;;;;;;;8.60;6.67;;;;;;;;;;5034952;28;20461;-76
2021/09/13 02:08:26;;;;;;;9.00;7.60;;;;;;;;;;5033766;28;20444;-77
2021/09/13 02:10:52;;;;;;;13.37;7.37;;;;;;;;;;5015756;28;20416;-77
2021/09/13 02:13:18;;;;;;;8.63;7.67;;;;;;;;;;4999631;28;20413;-77
2021/09/13 02:15:44;;;;;;;9.13;7.90;;;;;;;;;;5033604;28;20420;-77
2021/09/13 02:18:10;;;;;;;8.37;6.70;;;;;;;;;;5033857;28;20424;-77
2021/09/13 02:20:36;;;;;;;7.67;6.87;;;;;;;;;;5033682;28;20496;-78
2021/09/13 02:23:02;;;;;;;9.00;7.10;;;;;;;;;;5033094;28;20433;-78
2021/09/13 02:25:28;;;;;;;11.40;6.70;;;;;;;;;;5033455;28;20460;-77
2021/09/13 02:27:54;;;;;;;7.97;6.97;;;;;;;;;;5015302;28;20964;-77
2021/09/13 02:30:20;;;;;;;8.00;7.17;;;;;;;;;;5033604;28;20471;-76
2021/09/13 02:32:46;;;;;;;7.30;6.37;;;;;;;;;;5033325;28;20782;-76
2021/09/13 02:35:12;;;;;;;6.57;5.97;;;;;;;;;;5033205;28;20424;-77
2021/09/13 02:37:39;;;;;;;7.33;6.10;;;;;;;;;;5033361;28;20420;-77
2021/09/13 02:40:06;;;;;;;12.63;7.37;;;;;;;;;;5033109;28;20405;-77
2021/09/13 02:42:33;;;;;;;6.53;5.90;;;;;;;;;;5032846;28;20404;-77
2021/09/13 02:44:59;;;;;;;8.57;7.20;;;;;;;;;;5033006;28;20865;-77
2021/09/13 02:47:25;;;;;;;8.17;6.97;;;;;;;;;;5033102;28;20409;-78
2021/09/13 02:49:51;;;;;;;9.77;6.93;;;;;;;;;;5033038;28;20439;-76
2021/09/13 02:52:17;;;;;;;8.20;6.13;;;;;;;;;;5032719;28;20428;-78
2021/09/13 02:54:43;;;;;;;7.33;5.90;;;;;;;;;;5033082;28;20952;-77
2021/09/13 02:57:09;;;;;;;7.00;5.60;;;;;;;;;;5033171;28;20409;-78
2021/09/13 02:59:35;;;;;;;7.00;6.10;;;;;;;;;;5033074;28;20409;-78
2021/09/13 03:02:01;;;;;;;8.00;5.77;;;;;;;;;;5032566;28;20466;-77
2021/09/13 03:04:27;;;;;;;6.00;5.40;;;;;;;;;;5032516;28;20419;-78
2021/09/13 03:06:53;;;;;;;8.20;5.57;;;;;;;;;;5033016;28;20405;-77
2021/09/13 03:09:19;;;;;;;7.33;6.63;;;;;;;;;;5033053;28;20471;-77
2021/09/13 03:11:45;;;;;;;9.23;6.90;;;;;;;;;;5032544;28;20429;-77
2021/09/13 03:14:11;;;;;;;9.43;6.33;;;;;;;;;;5015230;28;20919;-77
2021/09/13 03:16:37;;;;;;;8.23;6.73;;;;;;;;;;5015287;28;20944;-77
2021/09/13 03:19:03;;;;;;;8.87;6.50;;;;;;;;;;5015407;28;20413;-78
2021/09/13 03:21:29;;;;;;;7.80;6.80;;;;;;;;;;5014803;28;20436;-77
2021/09/13 03:23:55;;;;;;;9.53;6.40;;;;;;;;;;5032891;28;20459;-77
2021/09/13 03:26:21;;;;;;;8.83;7.90;;;;;;;;;;5015133;28;20616;-77
2021/09/13 03:28:47;;;;;;;8.27;7.47;;;;;;;;;;5032734;28;20413;-77
2021/09/13 03:31:13;;;;;;;9.33;6.93;;;;;;;;;;5032349;28;20437;-78
2021/09/13 03:33:39;;;;;;;7.40;6.40;;;;;;;;;;5032947;28;20409;-77
2021/09/13 03:36:05;;;;;;;8.60;7.70;;;;;;;;;;4998812;28;20424;-77
2021/09/13 03:38:32;;;;;;;7.53;6.87;;;;;;;;;;5034999;28;20436;-76
2021/09/13 03:40:59;;;;;;;9.73;6.53;;;;;;;;;;5036025;28;20585;-78
2021/09/13 03:43:25;;;;;;;11.17;8.03;;;;;;;;;;5036500;28;20424;-76
2021/09/13 03:45:51;;;;;;;12.93;7.70;;;;;;;;;;5036354;28;20453;-76
2021/09/13 03:48:17;;;;;;;11.27;8.93;;;;;;;;;;5036299;28;20521;-76
2021/09/13 03:50:43;;;;;;;11.47;8.60;;;;;;;;;;5036662;28;20432;-76
2021/09/13 03:53:09;;;;;;;12.77;8.30;;;;;;;;;;5037897;28;20429;-76
2021/09/13 03:55:38;;;;;;;11.83;9.70;;;;;;;;;;5036069;28;20413;-77
2021/09/13 03:58:04;;;;;;;11.83;8.83;;;;;;;;;;5036252;28;20409;-78
2021/09/13 04:00:31;;;;;;;9.30;8.30;;;;;;;;;;5018504;28;20499;-78
2021/09/13 04:02:57;;;;;;;12.10;8.70;;;;;;;;;;5035254;28;20433;-78
2021/09/13 04:05:25;;;;;;;13.50;9.90;;;;;;;;;;5035867;28;20895;-77
2021/09/13 04:12:55;;;;;;;20.07;13.10;;;;;;;;;;5019251;28;20441;-78
2021/09/13 04:15:21;;;;;;;19.87;10.97;;;;;;;;;;5035771;28;20421;-79
2021/09/13 04:17:47;;;;;;;17.07;11.60;;;;;;;;;;5035720;28;20836;-79
2021/09/13 04:20:14;;;;;;;17.33;10.87;;;;;;;;;;5036056;28;20425;-80
2021/09/13 04:22:40;;;;;;;16.60;11.70;;;;;;;;;;5035597;28;20968;-78
2021/09/13 04:25:06;;;;;;;16.53;11.90;;;;;;;;;;5035450;28;20456;-78
2021/09/13 04:27:32;;;;;;;18.10;12.07;;;;;;;;;;5035837;28;20408;-79
2021/09/13 04:29:58;;;;;;;16.23;9.80;;;;;;;;;;5035584;28;20794;-78
2021/09/13 04:32:24;;;;;;;15.17;11.20;;;;;;;;;;5035167;28;20428;-78
2021/09/13 04:34:50;;;;;;;17.50;12.10;;;;;;;;;;5035522;28;20416;-79
2021/09/13 04:37:16;;;;;;;16.63;11.70;;;;;;;;;;5035292;28;20455;-78
2021/09/13 04:39:42;;;;;;;17.63;12.17;;;;;;;;;;5018068;28;20424;-78
2021/09/13 04:42:09;;;;;;;20.53;12.87;;;;;;;;;;5001066;28;20464;-79
2021/09/13 04:44:35;;;;;;;17.10;12.07;;;;;;;;;;5035291;28;20413;-79
2021/09/13 04:47:01;;;;;;;19.33;12.27;;;;;;;;;;5035359;28;20383;-78
2021/09/13 04:49:27;;;;;;;19.10;12.40;;;;;;;;;;5034578;28;20428;-80
2021/09/13 04:51:53;;;;;;;16.60;13.00;;;;;;;;;;5017420;28;20802;-78
2021/09/13 04:54:19;;;;;;;21.47;13.07;;;;;;;;;;5035197;28;20416;-79
2021/09/13 04:56:45;;;;;;;17.63;14.03;;;;;;;;;;5035022;28;20408;-78
2021/09/13 04:59:11;;;;;;;17.80;12.83;;;;;;;;;;5034926;28;20495;-79
2021/09/13 05:01:37;;;;;;;16.83;11.97;;;;;;;;;;5034743;28;20440;-79
2021/09/13 05:04:04;;;;;;;16.00;11.70;;;;;;;;;;5034881;28;20813;-80
2021/09/13 05:06:30;;;;;;;14.73;10.90;;;;;;;;;;5017409;28;20853;-79
2021/09/13 05:08:56;;;;;;;20.10;12.20;;;;;;;;;;5034927;28;20500;-77
2021/09/13 05:11:22;;;;;;;16.03;12.77;;;;;;;;;;5034263;28;20433;-79
2021/09/13 05:13:51;;;;;;;16.50;12.10;;;;;;;;;;5034774;28;20471;-79
2021/09/13 05:16:17;;;;;;;17.93;12.77;;;;;;;;;;5016876;28;20431;-79
2021/09/13 05:18:45;;;;;;;19.70;13.90;;;;;;;;;;5034960;28;20413;-79
2021/09/13 05:21:10;;;;;;;18.80;13.07;;;;;;;;;;5034262;28;20809;-79
2021/09/13 05:23:37;;;;;;;18.90;13.23;;;;;;;;;;5034468;28;20504;-79
2021/09/13 05:26:03;;;;;;;20.83;14.80;;;;;;;;;;5016518;28;20471;-79
2021/09/13 05:28:29;;;;;;;31.87;20.70;;;;;;;;;;5016934;28;20413;-79
2021/09/13 05:30:55;;;;;;;30.03;17.37;;;;;;;;;;5016621;28;20421;-79
2021/09/13 05:33:21;;;;;;;29.67;18.20;;;;;;;;;;5020192;28;20427;-80
2021/09/13 05:35:47;;;;;;;35.73;19.23;;;;;;;;;;5034269;28;20420;-80
2021/09/13 05:38:13;;;;;;;32.83;19.37;;;;;;;;;;5016475;28;20425;-78
2021/09/13 05:40:40;;;;;;;34.67;20.20;;;;;;;;;;5016328;28;20582;-80
2021/09/13 05:43:07;;;;;;;47.10;25.03;;;;;;;;;;5034282;28;20498;-78
2021/09/13 05:45:34;;;;;;;55.37;26.40;;;;;;;;;;5033952;28;20488;-78
2021/09/13 05:48:00;;;;;;;66.03;26.17;;;;;;;;;;5016168;28;20424;-79
2021/09/13 05:50:26;;;;;;;44.53;24.57;;;;;;;;;;5016298;28;20417;-79
2021/09/13 05:52:52;;;;;;;53.70;27.63;;;;;;;;;;5033415;28;20429;-79
2021/09/13 05:55:18;;;;;;;47.13;26.37;;;;;;;;;;5033980;28;20413;-79
2021/09/13 05:57:44;;;;;;;33.13;23.00;;;;;;;;;;5033795;28;20412;-77
2021/09/13 06:00:10;;;;;;;42.40;24.90;;;;;;;;;;5015986;28;20506;-78
2021/09/13 06:02:36;;;;;;;37.90;24.50;;;;;;;;;;5032583;28;20443;-78
2021/09/13 06:05:02;;;;;;;40.63;25.30;;;;;;;;;;5015893;28;21052;-78
2021/09/13 06:07:28;;;;;;;36.60;24.53;;;;;;;;;;5033809;28;20405;-78
2021/09/13 06:09:54;;;;;;;35.77;23.23;;;;;;;;;;5033559;28;20412;-81
2021/09/13 06:12:20;;;;;;;29.80;20.67;;;;;;;;;;5033184;28;20865;-78
2021/09/13 06:14:46;;;;;;;26.33;20.10;;;;;;;;;;5033556;28;20504;-79
2021/09/13 06:17:13;;;;;;;26.33;20.27;;;;;;;;;;5033681;28;20412;-79
2021/09/13 06:19:39;;;;;;;32.07;22.63;;;;;;;;;;5033352;28;20417;-80
2021/09/13 06:22:05;;;;;;;26.27;21.60;;;;;;;;;;5033297;28;20793;-80
2021/09/13 06:24:31;;;;;;;33.70;22.00;;;;;;;;;;5033341;28;20416;-79
2021/09/13 06:26:58;;;;;;;31.57;21.27;;;;;;;;;;5015857;28;20882;-79
2021/09/13 06:29:24;;;;;;;32.03;23.20;;;;;;;;;;5033704;28;20405;-79
2021/09/13 06:31:50;;;;;;;33.50;21.20;;;;;;;;;;5033103;28;20444;-78
2021/09/13 06:34:18;;;;;;;28.50;22.77;;;;;;;;;;5015685;28;20405;-78
2021/09/13 06:36:44;;;;;;;26.20;20.40;;;;;;;;;;5033541;28;20417;-79
2021/09/13 06:39:10;;;;;;;32.87;23.57;;;;;;;;;;4999168;28;20788;-79
2021/09/13 06:41:37;;;;;;;33.57;23.73;;;;;;;;;;5032832;28;20431;-80
2021/09/13 06:44:03;;;;;;;36.10;22.90;;;;;;;;;;5033097;28;20412;-80
2021/09/13 06:46:40;;;;;;;30.67;21.60;;;;;;;;;;5015374;28;21023;-78
2021/09/13 06:49:07;;;;;;;32.70;24.83;;;;;;;;;;5015243;28;20428;-78
2021/09/13 06:51:33;;;;;;;39.43;26.87;;;;;;;;;;5032739;28;20499;-80
2021/09/13 06:53:59;;;;;;;30.93;23.90;;;;;;;;;;5033187;28;20405;-79
2021/09/13 06:56:25;;;;;;;30.57;21.87;;;;;;;;;;5033080;28;20441;-78
2021/09/13 06:58:52;;;;;;;34.73;24.53;;;;;;;;;;5015295;28;20420;-78
2021/09/13 07:01:21;;;;;;;40.27;26.47;;;;;;;;;;5032699;28;20519;-78
2021/09/13 07:03:48;;;;;;;43.93;29.10;;;;;;;;;;5033340;28;20433;-79
2021/09/13 07:06:14;;;;;;;39.10;27.87;;;;;;;;;;5032845;28;20492;-80
2021/09/13 07:08:40;;;;;;;35.00;26.87;;;;;;;;;;5032879;28;20439;-79
2021/09/13 07:11:06;;;;;;;30.43;23.77;;;;;;;;;;5014566;28;20445;-78
2021/09/13 07:13:32;;;;;;;28.63;23.20;;;;;;;;;;5017804;28;20413;-79
2021/09/13 07:15:59;;;;;;;28.13;24.03;;;;;;;;;;5036852;28;20417;-79
2021/09/13 07:18:27;;;;;;;28.50;23.50;;;;;;;;;;5036702;28;20759;-78
2021/09/13 07:20:53;;;;;;;27.23;22.73;;;;;;;;;;5018573;28;20523;-79
2021/09/13 07:23:19;;;;;;;27.87;24.73;;;;;;;;;;5019030;28;20479;-80
2021/09/13 07:25:45;;;;;;;30.87;25.33;;;;;;;;;;5036904;28;20572;-80
2021/09/13 07:28:11;;;;;;;29.60;25.07;;;;;;;;;;5036651;28;20436;-80
2021/09/13 07:30:37;;;;;;;36.17;25.60;;;;;;;;;;5036466;28;20848;-78
2021/09/13 07:33:03;;;;;;;32.67;25.53;;;;;;;;;;5036397;28;20491;-78
2021/09/13 07:35:29;;;;;;;31.53;24.33;;;;;;;;;;5036536;28;20390;-79
2021/09/13 07:37:55;;;;;;;28.70;25.47;;;;;;;;;;5036675;28;20829;-79
2021/09/13 07:40:21;;;;;;;29.00;24.50;;;;;;;;;;5036737;28;20448;-79
2021/09/13 07:42:47;;;;;;;26.37;22.50;;;;;;;;;;5036277;28;20487;-79
2021/09/13 07:45:14;;;;;;;24.10;20.60;;;;;;;;;;5036687;28;20468;-79
2021/09/13 07:47:40;;;;;;;25.63;22.53;;;;;;;;;;5036556;28;20519;-79
2021/09/13 07:50:06;;;;;;;24.43;20.20;;;;;;;;;;5036339;28;20399;-79
2021/09/13 07:52:32;;;;;;;24.13;20.37;;;;;;;;;;5035934;28;20399;-78
2021/09/13 07:54:58;;;;;;;26.93;21.50;;;;;;;;;;5036305;28;20387;-78
2021/09/13 07:57:24;;;;;;;24.10;21.60;;;;;;;;;;5018662;28;20417;-78
2021/09/13 07:59:50;;;;;;;26.97;22.50;;;;;;;;;;5018368;28;20416;-78
2021/09/13 08:02:17;;;;;;;28.50;20.57;;;;;;;;;;5035609;28;20523;-78
2021/09/13 08:04:43;;;;;;;26.70;20.57;;;;;;;;;;5018330;28;20582;-79
2021/09/13 08:07:09;;;;;;;25.40;21.73;;;;;;;;;;5035948;28;20437;-78
2021/09/13 08:09:35;;;;;;;23.83;21.20;;;;;;;;;;5035852;28;20471;-79
2021/09/13 08:12:01;;;;;;;26.33;22.30;;;;;;;;;;5035609;28;20980;-79
2021/09/13 08:14:27;;;;;;;25.40;21.67;;;;;;;;;;5017927;28;20899;-79
2021/09/13 08:16:53;;;;;;;22.40;19.97;;;;;;;;;;5017755;28;20420;-79
2021/09/13 08:19:19;;;;;;;21.10;19.00;;;;;;;;;;5035726;28;20801;-78
2021/09/13 08:21:45;;;;;;;24.07;18.90;;;;;;;;;;5035202;28;20491;-79
2021/09/13 08:24:11;;;;;;;24.93;21.53;;;;;;;;;;5034663;28;20432;-79
2021/09/13 08:26:39;;;;;;;24.90;20.37;;;;;;;;;;5035588;28;20867;-79
2021/09/13 08:29:06;;;;;;;25.13;20.60;;;;;;;;;;5035411;28;20931;-80
2021/09/13 08:31:32;;;;;;;27.43;21.63;;;;;;;;;;5035252;28;20452;-78
2021/09/13 08:33:58;;;;;;;29.10;23.83;;;;;;;;;;5017633;28;20409;-77
2021/09/13 08:36:24;;;;;;;31.13;25.20;;;;;;;;;;5035618;28;20404;-78
2021/09/13 08:38:50;;;;;;;37.67;28.20;;;;;;;;;;5035619;28;20391;-79
2021/09/13 08:41:16;;;;;;;44.17;29.20;;;;;;;;;;5035022;28;20765;-78
2021/09/13 08:43:43;;;;;;;42.57;28.37;;;;;;;;;;5035377;28;20424;-78
2021/09/13 08:46:23;;;;;;;45.50;29.20;;;;;;;;;;5035366;28;20493;-79
2021/09/13 08:48:53;;;;;;;37.90;28.47;;;;;;;;;;5035401;28;20429;-78
2021/09/13 08:51:30;;;;;;;43.07;30.90;;;;;;;;;;5034656;28;20503;-79
2021/09/13 08:53:56;;;;;;;40.40;30.57;;;;;;;;;;5035220;28;20383;-78
2021/09/13 08:56:29;;;;;;;45.47;33.40;;;;;;;;;;5035119;28;20411;-79
2021/09/13 08:58:56;;;;;;;42.73;32.30;;;;;;;;;;5035162;28;20479;-80
2021/09/13 09:01:24;;;;;;;45.67;32.40;;;;;;;;;;5034513;28;20411;-78
2021/09/13 09:03:50;;;;;;;50.60;32.87;;;;;;;;;;5035016;28;20413;-79
2021/09/13 09:06:29;;;;;;;48.67;32.93;;;;;;;;;;5035490;28;20439;-79
2021/09/13 09:09:15;;;;;;;50.60;36.80;;;;;;;;;;5034798;28;20383;-78
2021/09/13 09:11:56;;;;;;;54.50;38.10;;;;;;;;;;5034413;28;20492;-79
2021/09/13 09:14:26;;;;;;;52.80;38.50;;;;;;;;;;5034851;28;20382;-79
2021/09/13 09:16:56;;;;;;;42.90;33.20;;;;;;;;;;5034667;28;20810;-79
2021/09/13 09:19:22;;;;;;;50.30;35.60;;;;;;;;;;5034444;28;20390;-78
2021/09/13 09:21:48;;;;;;;60.63;35.80;;;;;;;;;;5034115;28;20418;-78
2021/09/13 09:24:14;;;;;;;44.00;34.80;;;;;;;;;;5034352;28;20810;-78
2021/09/13 09:26:40;;;;;;;48.73;33.90;;;;;;;;;;5034317;28;20443;-79
2021/09/13 09:29:06;;;;;;;41.63;31.90;;;;;;;;;;5034666;28;20405;-78
2021/09/13 09:31:36;;;;;;;46.13;34.50;;;;;;;;;;5034017;28;20923;-79
2021/09/13 09:34:12;;;;;;;43.33;31.50;;;;;;;;;;5016767;28;20429;-78
2021/09/13 09:36:38;;;;;;;41.80;33.20;;;;;;;;;;5034277;28;20920;-79
2021/09/13 09:39:11;;;;;;;45.67;36.90;;;;;;;;;;5034290;28;20421;-79
2021/09/13 09:41:44;;;;;;;58.47;38.80;;;;;;;;;;5033734;28;20848;-79
2021/09/13 09:44:11;;;;;;;52.60;37.67;;;;;;;;;;5034341;28;20424;-79
2021/09/13 09:46:41;;;;;;;50.10;36.80;;;;;;;;;;5033869;28;20471;-79
2021/09/13 09:49:08;;;;;;;43.40;37.00;;;;;;;;;;5016579;28;20545;-79
2021/09/13 09:51:36;;;;;;;42.27;35.50;;;;;;;;;;5015804;28;20433;-77
2021/09/13 09:54:14;;;;;;;46.37;36.33;;;;;;;;;;5034139;28;20451;-79
2021/09/13 09:56:41;;;;;;;39.67;32.90;;;;;;;;;;5034048;28;20412;-80
2021/09/13 09:59:08;;;;;;;43.53;35.30;;;;;;;;;;5033859;28;20423;-78
2021/09/13 10:01:41;;;;;;;44.50;35.67;;;;;;;;;;5033526;28;20444;-79
2021/09/13 10:04:14;;;;;;;42.37;37.10;;;;;;;;;;5033751;28;20409;-78
2021/09/13 10:06:42;;;;;;;38.07;31.43;;;;;;;;;;5033767;28;20464;-79
2021/09/13 10:09:09;;;;;;;34.80;30.30;;;;;;;;;;5015968;28;20421;-78
2021/09/13 10:11:35;;;;;;;47.07;34.80;;;;;;;;;;5015760;28;20464;-79
2021/09/13 10:14:02;;;;;;;38.13;33.00;;;;;;;;;;5033666;28;20491;-79
2021/09/13 10:16:28;;;;;;;37.20;29.30;;;;;;;;;;5033581;28;20417;-79
2021/09/13 10:18:54;;;;;;;37.67;29.70;;;;;;;;;;5033638;28;20391;-79
2021/09/13 10:21:21;;;;;;;35.03;29.97;;;;;;;;;;5015396;28;20437;-79
2021/09/13 10:23:47;;;;;;;36.70;29.23;;;;;;;;;;5015506;28;20417;-80
2021/09/13 10:26:13;;;;;;;36.70;27.10;;;;;;;;;;5033284;28;20479;-79
2021/09/13 10:28:58;;;;;;;37.20;28.10;;;;;;;;;;5033465;28;20453;-79
2021/09/13 10:31:42;;;;;;;33.90;28.03;;;;;;;;;;5033022;28;20424;-76
2021/09/13 10:34:30;;;;;;;44.30;35.03;;;;;;;;;;5033246;28;20444;-78
2021/09/13 10:37:01;;;;;;;41.63;32.77;;;;;;;;;;5033478;28;20405;-79
2021/09/13 10:39:46;;;;;;;36.50;29.13;;;;;;;;;;5033410;28;20404;-75
2021/09/13 10:42:30;;;;;;;37.30;28.53;;;;;;;;;;5032712;28;20482;-76
2021/09/13 10:45:02;;;;;;;30.40;26.90;;;;;;;;;;5033118;28;20460;-78
2021/09/13 10:47:29;;;;;;;28.07;24.93;;;;;;;;;;5032787;28;20401;-79
2021/09/13 10:50:13;;;;;;;26.73;23.80;;;;;;;;;;5015322;28;20431;-79
2021/09/13 10:52:39;;;;;;;28.97;25.20;;;;;;;;;;5032738;28;20432;-76
2021/09/13 10:55:08;;;;;;;33.10;27.47;;;;;;;;;;5033283;28;20424;-76
2021/09/13 10:57:52;;;;;;;27.77;24.50;;;;;;;;;;5033146;28;20445;-76
2021/09/13 11:00:38;;;;;;;27.87;23.17;;;;;;;;;;5032899;28;20420;-77
2021/09/13 11:03:23;;;;;;;22.90;19.77;;;;;;;;;;5033079;28;20433;-76
2021/09/13 11:06:04;;;;;;;29.87;23.47;;;;;;;;;;5032947;28;20456;-79
2021/09/13 11:08:30;;;;;;;25.83;22.53;;;;;;;;;;5015281;28;20467;-77
2021/09/13 11:10:57;;;;;;;30.13;23.70;;;;;;;;;;5014709;28;20420;-77
2021/09/13 11:13:23;;;;;;;24.83;20.30;;;;;;;;;;5015301;28;20840;-75
2021/09/13 11:15:49;;;;;;;25.77;22.50;;;;;;;;;;5032925;28;20452;-76
2021/09/13 11:18:36;;;;;;;25.17;19.33;;;;;;;;;;5032705;28;20432;-76
2021/09/13 11:21:34;;;;;;;21.97;19.00;;;;;;;;;;5032321;28;20963;-76
2021/09/13 11:24:03;;;;;;;23.97;18.90;;;;;;;;;;4979021;28;20428;-75
2021/09/13 11:26:29;;;;;;;18.83;16.83;;;;;;;;;;5032505;28;20792;-75
2021/09/13 11:28:56;;;;;;;24.30;19.97;;;;;;;;;;5032866;28;20427;-76
2021/09/13 11:31:30;;;;;;;29.00;21.80;;;;;;;;;;5032331;28;20789;-79
2021/09/13 11:33:56;;;;;;;25.00;20.20;;;;;;;;;;5033118;28;20412;-76
2021/09/13 11:36:23;;;;;;;26.83;18.73;;;;;;;;;;5032804;28;20416;-79
2021/09/13 11:39:06;;;;;;;22.07;17.30;;;;;;;;;;5032713;28;20444;-80
2021/09/13 11:41:32;;;;;;;21.10;17.53;;;;;;;;;;5015098;28;20432;-79
2021/09/13 11:44:01;;;;;;;20.57;15.90;;;;;;;;;;5032686;28;20452;-78
2021/09/13 11:46:27;;;;;;;18.70;14.87;;;;;;;;;;5032426;28;20464;-77
2021/09/13 11:48:53;;;;;;;16.13;13.67;;;;;;;;;;5032510;28;20539;-77
2021/09/13 11:51:19;;;;;;;18.70;14.37;;;;;;;;;;5032181;28;20531;-78
2021/09/13 11:54:04;;;;;;;14.93;12.20;;;;;;;;;;5032655;28;20409;-78
2021/09/13 11:56:30;;;;;;;16.23;14.50;;;;;;;;;;5032700;28;20401;-78
2021/09/13 11:58:56;;;;;;;16.83;14.23;;;;;;;;;;5032621;28;20804;-77
2021/09/13 12:01:22;;;;;;;17.67;13.70;;;;;;;;;;5035930;28;20424;-78
2021/09/13 12:03:48;;;;;;;13.60;10.87;;;;;;;;;;5036066;28;20773;-77
2021/09/13 12:06:19;;;;;;;13.30;11.60;;;;;;;;;;5035985;28;20491;-77
2021/09/13 12:08:45;;;;;;;17.37;11.77;;;;;;;;;;5035957;28;20413;-78
2021/09/13 12:11:11;;;;;;;16.27;11.33;;;;;;;;;;5035865;28;20440;-78
2021/09/13 12:13:38;;;;;;;15.43;11.87;;;;;;;;;;5038784;28;20417;-78
2021/09/13 12:16:04;;;;;;;16.70;14.27;;;;;;;;;;5019423;28;20433;-77
2021/09/13 12:18:33;;;;;;;18.33;14.23;;;;;;;;;;5035935;28;20428;-78
2021/09/13 12:20:59;;;;;;;12.10;10.80;;;;;;;;;;5035427;28;20458;-77
2021/09/13 12:23:28;;;;;;;19.63;14.17;;;;;;;;;;5017804;28;20421;-78
2021/09/13 12:25:55;;;;;;;17.00;12.60;;;;;;;;;;5035805;28;20471;-77
2021/09/13 12:28:23;;;;;;;19.53;14.30;;;;;;;;;;5035681;28;20409;-78
2021/09/13 12:30:53;;;;;;;16.80;12.50;;;;;;;;;;5035020;28;20413;-77
2021/09/13 12:33:19;;;;;;;16.27;12.97;;;;;;;;;;5017813;28;20424;-77
2021/09/13 12:35:47;;;;;;;16.83;11.77;;;;;;;;;;5017797;28;20414;-78
2021/09/13 12:38:20;;;;;;;14.17;11.43;;;;;;;;;;5017719;28;20417;-79
2021/09/13 12:40:49;;;;;;;16.97;12.00;;;;;;;;;;5034999;28;20475;-78
2021/09/13 12:43:19;;;;;;;16.83;11.23;;;;;;;;;;5035506;28;20474;-78
2021/09/13 12:45:45;;;;;;;13.20;11.80;;;;;;;;;;5035322;28;20984;-78
2021/09/13 12:48:11;;;;;;;12.23;10.90;;;;;;;;;;5035206;28;20819;-77
2021/09/13 12:50:38;;;;;;;13.10;11.80;;;;;;;;;;5017519;28;20474;-77
2021/09/13 12:53:09;;;;;;;12.73;11.43;;;;;;;;;;5035106;28;20953;-77
2021/09/13 12:55:39;;;;;;;15.27;13.67;;;;;;;;;;5035330;28;20429;-78
2021/09/13 12:58:24;;;;;;;13.23;11.83;;;;;;;;;;5035235;28;20445;-77
2021/09/13 13:00:50;;;;;;;16.47;14.50;;;;;;;;;;5034537;28;20455;-80
2021/09/13 13:03:16;;;;;;;21.43;16.30;;;;;;;;;;5034939;28;20416;-77
2021/09/13 13:05:48;;;;;;;19.97;15.37;;;;;;;;;;5017270;28;20464;-78
2021/09/13 13:08:15;;;;;;;15.03;13.53;;;;;;;;;;5035162;28;20766;-77
2021/09/13 13:10:41;;;;;;;16.87;14.60;;;;;;;;;;5034285;28;20416;-77
2021/09/13 13:13:07;;;;;;;17.77;13.60;;;;;;;;;;5017281;28;20801;-77
2021/09/13 13:15:33;;;;;;;17.93;13.90;;;;;;;;;;5034806;28;20421;-77
2021/09/13 13:18:00;;;;;;;14.80;11.80;;;;;;;;;;5034784;28;20428;-78
2021/09/13 13:20:29;;;;;;;15.93;12.80;;;;;;;;;;5034681;28;20417;-78
2021/09/13 13:22:56;;;;;;;14.27;10.87;;;;;;;;;;5016427;28;20437;-79
2021/09/13 13:25:22;;;;;;;15.83;12.27;;;;;;;;;;5034569;28;20468;-77
2021/09/13 13:27:48;;;;;;;12.50;10.40;;;;;;;;;;5034612;28;20423;-78
2021/09/13 13:30:17;;;;;;;13.03;9.07;;;;;;;;;;5034545;28;20401;-79
2021/09/13 13:32:43;;;;;;;11.10;10.03;;;;;;;;;;5000337;28;20495;-79
2021/09/13 13:35:09;;;;;;;11.27;9.37;;;;;;;;;;5015523;28;20424;-79
2021/09/13 13:37:35;;;;;;;11.13;10.07;;;;;;;;;;5039151;28;20767;-78
2021/09/13 13:40:01;;;;;;;14.10;11.43;;;;;;;;;;5052848;28;20420;-77
2021/09/13 13:42:27;;;;;;;11.67;10.20;;;;;;;;;;5051797;28;20726;-77
2021/09/13 13:44:55;;;;;;;12.73;9.97;;;;;;;;;;5053588;28;20862;-79
2021/09/13 13:47:22;;;;;;;11.80;10.50;;;;;;;;;;5052462;28;20833;-79
2021/09/13 13:49:48;;;;;;;10.60;9.50;;;;;;;;;;5052460;28;20436;-78
2021/09/13 13:52:14;;;;;;;17.60;11.73;;;;;;;;;;5051275;28;20444;-78
2021/09/13 13:54:40;;;;;;;14.60;12.37;;;;;;;;;;5052531;28;20424;-77
2021/09/13 13:57:06;;;;;;;12.37;10.30;;;;;;;;;;5052391;28;20431;-77
2021/09/13 13:59:33;;;;;;;15.20;11.83;;;;;;;;;;5034520;28;20473;-79
2021/09/13 14:01:59;;;;;;;13.77;11.53;;;;;;;;;;5051511;28;20443;-78
2021/09/13 14:04:24;;;;;;;13.00;11.10;;;;;;;;;;5052516;28;20427;-77
2021/09/13 14:06:51;;;;;;;15.63;9.93;;;;;;;;;;5051281;28;20463;-79
2021/09/13 14:09:17;;;;;;;13.73;11.97;;;;;;;;;;5052395;28;20412;-78
2021/09/13 14:11:43;;;;;;;12.87;11.20;;;;;;;;;;5051376;28;20463;-77
2021/09/13 14:14:09;;;;;;;11.43;10.27;;;;;;;;;;5051754;28;20812;-78
2021/09/13 14:16:35;;;;;;;10.70;9.60;;;;;;;;;;5051795;28;20432;-78
2021/09/13 14:19:01;;;;;;;13.83;9.90;;;;;;;;;;5052390;28;20450;-79
2021/09/13 14:21:27;;;;;;;12.90;10.30;;;;;;;;;;5032860;28;20440;-79
2021/09/13 14:23:53;;;;;;;10.87;8.93;;;;;;;;;;5051550;28;20507;-79
2021/09/13 14:26:19;;;;;;;13.17;9.70;;;;;;;;;;5051486;28;20463;-78
2021/09/13 14:28:45;;;;;;;13.73;9.70;;;;;;;;;;5051223;28;20416;-79
2021/09/13 14:31:11;;;;;;;10.40;9.17;;;;;;;;;;5051200;28;20443;-78